sensor_id;sensor_type;location;lat;lon;timestamp;temperature;humidity
59973;DHT22;55298;-36.624;-64.282;2022-12-18T00:01:59;27.00;31.80
59973;DHT22;55298;-36.624;-64.282;2022-12-18T00:04:27;26.90;32.00
59973;DHT22;55298;-36.624;-64.282;2022-12-18T00:06:55;26.90;32.10
59973;DHT22;55298;-36.624;-64.282;2022-12-18T00:09:24;26.80;32.20
59973;DHT22;55298;-36.624;-64.282;2022-12-18T00:11:52;26.80;32.50
59973;DHT22;55298;-36.624;-64.282;2022-12-18T00:14:22;26.70;32.40
59973;DHT22;55298;-36.624;-64.282;2022-12-18T00:16:51;26.70;32.70
59973;DHT22;55298;-36.624;-64.282;2022-12-18T00:19:19;26.60;32.80
59973;DHT22;55298;-36.624;-64.282;2022-12-18T00:21:47;26.60;33.10
59973;DHT22;55298;-36.624;-64.282;2022-12-18T00:24:16;26.50;33.20
59973;DHT22;55298;-36.624;-64.282;2022-12-18T00:26:45;26.50;33.30
59973;DHT22;55298;-36.624;-64.282;2022-12-18T00:29:14;26.40;34.10
59973;DHT22;55298;-36.624;-64.282;2022-12-18T00:31:43;26.40;33.70
59973;DHT22;55298;-36.624;-64.282;2022-12-18T00:34:12;26.30;33.90
59973;DHT22;55298;-36.624;-64.282;2022-12-18T00:36:41;26.20;33.90
59973;DHT22;55298;-36.624;-64.282;2022-12-18T00:39:11;26.20;34.10
59973;DHT22;55298;-36.624;-64.282;2022-12-18T00:41:39;26.10;34.20
59973;DHT22;55298;-36.624;-64.282;2022-12-18T00:44:18;26.10;34.30
59973;DHT22;55298;-36.624;-64.282;2022-12-18T00:46:47;26.10;34.40
59973;DHT22;55298;-36.624;-64.282;2022-12-18T00:49:19;26.00;34.50
59973;DHT22;55298;-36.624;-64.282;2022-12-18T00:51:48;26.00;34.80
59973;DHT22;55298;-36.624;-64.282;2022-12-18T00:54:17;25.90;34.80
59973;DHT22;55298;-36.624;-64.282;2022-12-18T00:56:45;25.90;34.80
59973;DHT22;55298;-36.624;-64.282;2022-12-18T00:59:13;25.90;34.90
59973;DHT22;55298;-36.624;-64.282;2022-12-18T01:01:41;25.90;34.90
59973;DHT22;55298;-36.624;-64.282;2022-12-18T01:04:09;25.80;34.90
59973;DHT22;55298;-36.624;-64.282;2022-12-18T01:06:40;25.90;35.10
59973;DHT22;55298;-36.624;-64.282;2022-12-18T01:09:08;25.80;35.00
59973;DHT22;55298;-36.624;-64.282;2022-12-18T01:11:40;25.80;35.10
59973;DHT22;55298;-36.624;-64.282;2022-12-18T01:14:08;25.80;35.10
59973;DHT22;55298;-36.624;-64.282;2022-12-18T01:16:36;25.80;35.10
59973;DHT22;55298;-36.624;-64.282;2022-12-18T01:19:04;25.70;35.20
59973;DHT22;55298;-36.624;-64.282;2022-12-18T01:21:32;25.70;35.20
59973;DHT22;55298;-36.624;-64.282;2022-12-18T01:24:00;25.70;35.20
59973;DHT22;55298;-36.624;-64.282;2022-12-18T01:26:28;25.70;35.40
59973;DHT22;55298;-36.624;-64.282;2022-12-18T01:28:57;25.60;35.40
59973;DHT22;55298;-36.624;-64.282;2022-12-18T01:31:30;25.60;35.50
59973;DHT22;55298;-36.624;-64.282;2022-12-18T01:34:02;25.60;35.50
59973;DHT22;55298;-36.624;-64.282;2022-12-18T01:36:33;25.50;35.70
59973;DHT22;55298;-36.624;-64.282;2022-12-18T01:39:05;25.50;35.80
59973;DHT22;55298;-36.624;-64.282;2022-12-18T01:41:34;25.50;36.10
59973;DHT22;55298;-36.624;-64.282;2022-12-18T01:46:58;25.30;36.40
59973;DHT22;55298;-36.624;-64.282;2022-12-18T01:49:27;25.20;36.50
59973;DHT22;55298;-36.624;-64.282;2022-12-18T01:51:54;25.10;36.70
59973;DHT22;55298;-36.624;-64.282;2022-12-18T01:54:23;25.10;36.90
59973;DHT22;55298;-36.624;-64.282;2022-12-18T01:56:51;25.10;37.20
59973;DHT22;55298;-36.624;-64.282;2022-12-18T01:59:20;25.00;37.30
59973;DHT22;55298;-36.624;-64.282;2022-12-18T02:01:49;25.00;37.40
59973;DHT22;55298;-36.624;-64.282;2022-12-18T02:04:22;24.90;37.60
59973;DHT22;55298;-36.624;-64.282;2022-12-18T02:07:01;24.90;37.80
59973;DHT22;55298;-36.624;-64.282;2022-12-18T02:10:02;24.80;37.90
59973;DHT22;55298;-36.624;-64.282;2022-12-18T02:12:28;24.70;38.30
59973;DHT22;55298;-36.624;-64.282;2022-12-18T02:18:21;24.50;39.50
59973;DHT22;55298;-36.624;-64.282;2022-12-18T02:26:48;24.30;39.80
59973;DHT22;55298;-36.624;-64.282;2022-12-18T02:29:23;24.30;40.00
59973;DHT22;55298;-36.624;-64.282;2022-12-18T02:31:56;24.20;40.10
59973;DHT22;55298;-36.624;-64.282;2022-12-18T02:34:30;24.20;40.20
59973;DHT22;55298;-36.624;-64.282;2022-12-18T02:37:01;24.20;40.20
59973;DHT22;55298;-36.624;-64.282;2022-12-18T02:39:34;24.20;40.20
59973;DHT22;55298;-36.624;-64.282;2022-12-18T02:42:03;24.20;40.30
59973;DHT22;55298;-36.624;-64.282;2022-12-18T02:44:48;24.20;40.50
59973;DHT22;55298;-36.624;-64.282;2022-12-18T02:47:19;24.10;40.40
59973;DHT22;55298;-36.624;-64.282;2022-12-18T02:50:02;24.10;40.60
59973;DHT22;55298;-36.624;-64.282;2022-12-18T02:55:48;24.20;40.60
59973;DHT22;55298;-36.624;-64.282;2022-12-18T02:58:34;24.20;40.50
59973;DHT22;55298;-36.624;-64.282;2022-12-18T03:04:04;24.20;40.60
59973;DHT22;55298;-36.624;-64.282;2022-12-18T03:06:37;24.20;40.60
59973;DHT22;55298;-36.624;-64.282;2022-12-18T03:09:09;24.10;41.00
59973;DHT22;55298;-36.624;-64.282;2022-12-18T03:11:42;24.00;41.00
59973;DHT22;55298;-36.624;-64.282;2022-12-18T03:14:22;24.00;41.30
59973;DHT22;55298;-36.624;-64.282;2022-12-18T03:16:54;23.90;41.40
59973;DHT22;55298;-36.624;-64.282;2022-12-18T03:19:29;23.90;41.40
59973;DHT22;55298;-36.624;-64.282;2022-12-18T03:22:02;23.80;41.50
59973;DHT22;55298;-36.624;-64.282;2022-12-18T03:24:33;23.80;41.50
59973;DHT22;55298;-36.624;-64.282;2022-12-18T03:27:04;23.80;41.70
59973;DHT22;55298;-36.624;-64.282;2022-12-18T03:29:38;23.70;41.80
59973;DHT22;55298;-36.624;-64.282;2022-12-18T03:32:29;23.60;42.00
59973;DHT22;55298;-36.624;-64.282;2022-12-18T03:35:02;23.60;42.20
59973;DHT22;55298;-36.624;-64.282;2022-12-18T03:37:32;23.60;42.30
59973;DHT22;55298;-36.624;-64.282;2022-12-18T03:40:00;23.50;42.60
59973;DHT22;55298;-36.624;-64.282;2022-12-18T03:42:46;23.50;42.60
59973;DHT22;55298;-36.624;-64.282;2022-12-18T03:45:31;23.50;42.60
59973;DHT22;55298;-36.624;-64.282;2022-12-18T03:48:08;23.40;42.90
59973;DHT22;55298;-36.624;-64.282;2022-12-18T03:53:51;23.30;43.20
59973;DHT22;55298;-36.624;-64.282;2022-12-18T03:56:22;23.30;43.20
59973;DHT22;55298;-36.624;-64.282;2022-12-18T03:58:53;23.30;43.60
59973;DHT22;55298;-36.624;-64.282;2022-12-18T04:01:32;23.20;43.70
59973;DHT22;55298;-36.624;-64.282;2022-12-18T04:04:02;23.20;43.90
59973;DHT22;55298;-36.624;-64.282;2022-12-18T04:06:32;23.20;43.70
59973;DHT22;55298;-36.624;-64.282;2022-12-18T04:09:00;23.10;43.60
59973;DHT22;55298;-36.624;-64.282;2022-12-18T04:11:28;23.10;44.10
59973;DHT22;55298;-36.624;-64.282;2022-12-18T04:13:58;23.00;44.20
59973;DHT22;55298;-36.624;-64.282;2022-12-18T04:16:26;22.90;44.30
59973;DHT22;55298;-36.624;-64.282;2022-12-18T04:18:55;22.90;44.60
59973;DHT22;55298;-36.624;-64.282;2022-12-18T04:21:23;22.80;44.30
59973;DHT22;55298;-36.624;-64.282;2022-12-18T04:23:52;22.70;44.70
59973;DHT22;55298;-36.624;-64.282;2022-12-18T04:26:19;22.70;45.40
59973;DHT22;55298;-36.624;-64.282;2022-12-18T04:28:47;22.60;44.80
59973;DHT22;55298;-36.624;-64.282;2022-12-18T04:31:15;22.60;45.10
59973;DHT22;55298;-36.624;-64.282;2022-12-18T04:33:44;22.60;45.20
59973;DHT22;55298;-36.624;-64.282;2022-12-18T04:36:12;22.50;45.10
59973;DHT22;55298;-36.624;-64.282;2022-12-18T04:38:40;22.40;45.50
59973;DHT22;55298;-36.624;-64.282;2022-12-18T04:41:08;22.40;45.50
59973;DHT22;55298;-36.624;-64.282;2022-12-18T04:43:35;22.40;45.30
59973;DHT22;55298;-36.624;-64.282;2022-12-18T04:46:06;22.30;45.00
59973;DHT22;55298;-36.624;-64.282;2022-12-18T04:48:34;22.30;45.60
59973;DHT22;55298;-36.624;-64.282;2022-12-18T04:51:05;22.20;45.60
59973;DHT22;55298;-36.624;-64.282;2022-12-18T04:53:34;22.20;45.50
59973;DHT22;55298;-36.624;-64.282;2022-12-18T04:56:06;22.10;45.80
59973;DHT22;55298;-36.624;-64.282;2022-12-18T04:58:35;22.00;45.60
59973;DHT22;55298;-36.624;-64.282;2022-12-18T05:01:04;22.00;46.70
59973;DHT22;55298;-36.624;-64.282;2022-12-18T05:03:33;22.00;45.80
59973;DHT22;55298;-36.624;-64.282;2022-12-18T05:06:02;21.90;46.00
59973;DHT22;55298;-36.624;-64.282;2022-12-18T05:08:30;21.80;46.00
59973;DHT22;55298;-36.624;-64.282;2022-12-18T05:11:02;21.80;46.00
59973;DHT22;55298;-36.624;-64.282;2022-12-18T05:13:31;21.80;45.70
59973;DHT22;55298;-36.624;-64.282;2022-12-18T05:15:59;21.70;45.70
59973;DHT22;55298;-36.624;-64.282;2022-12-18T05:18:28;21.80;45.50
59973;DHT22;55298;-36.624;-64.282;2022-12-18T05:20:57;21.80;45.80
59973;DHT22;55298;-36.624;-64.282;2022-12-18T05:23:26;21.80;45.90
59973;DHT22;55298;-36.624;-64.282;2022-12-18T05:25:57;21.70;46.00
59973;DHT22;55298;-36.624;-64.282;2022-12-18T05:28:28;21.60;46.40
59973;DHT22;55298;-36.624;-64.282;2022-12-18T05:30:59;21.60;46.50
59973;DHT22;55298;-36.624;-64.282;2022-12-18T05:33:31;21.50;46.80
59973;DHT22;55298;-36.624;-64.282;2022-12-18T05:36:03;21.40;46.80
59973;DHT22;55298;-36.624;-64.282;2022-12-18T05:38:33;21.30;46.90
59973;DHT22;55298;-36.624;-64.282;2022-12-18T05:41:02;21.40;47.00
59973;DHT22;55298;-36.624;-64.282;2022-12-18T05:43:31;21.30;47.30
59973;DHT22;55298;-36.624;-64.282;2022-12-18T05:46:05;21.20;47.60
59973;DHT22;55298;-36.624;-64.282;2022-12-18T05:48:34;21.20;47.80
59973;DHT22;55298;-36.624;-64.282;2022-12-18T05:51:12;21.10;48.00
59973;DHT22;55298;-36.624;-64.282;2022-12-18T05:53:42;21.00;48.00
59973;DHT22;55298;-36.624;-64.282;2022-12-18T05:56:14;20.90;48.20
59973;DHT22;55298;-36.624;-64.282;2022-12-18T05:58:43;20.90;48.30
59973;DHT22;55298;-36.624;-64.282;2022-12-18T06:01:14;20.80;48.40
59973;DHT22;55298;-36.624;-64.282;2022-12-18T06:03:44;20.80;48.50
59973;DHT22;55298;-36.624;-64.282;2022-12-18T06:06:21;20.80;48.50
59973;DHT22;55298;-36.624;-64.282;2022-12-18T06:08:53;20.70;48.60
59973;DHT22;55298;-36.624;-64.282;2022-12-18T06:11:22;20.70;48.70
59973;DHT22;55298;-36.624;-64.282;2022-12-18T06:13:54;20.70;48.60
59973;DHT22;55298;-36.624;-64.282;2022-12-18T06:16:21;20.70;48.70
59973;DHT22;55298;-36.624;-64.282;2022-12-18T06:18:50;20.60;48.80
59973;DHT22;55298;-36.624;-64.282;2022-12-18T06:21:20;20.60;48.80
59973;DHT22;55298;-36.624;-64.282;2022-12-18T06:23:48;20.60;48.90
59973;DHT22;55298;-36.624;-64.282;2022-12-18T06:26:17;20.50;48.90
59973;DHT22;55298;-36.624;-64.282;2022-12-18T06:28:45;20.50;49.00
59973;DHT22;55298;-36.624;-64.282;2022-12-18T06:31:13;20.50;49.00
59973;DHT22;55298;-36.624;-64.282;2022-12-18T06:33:41;20.50;49.00
59973;DHT22;55298;-36.624;-64.282;2022-12-18T06:36:12;20.50;49.10
59973;DHT22;55298;-36.624;-64.282;2022-12-18T06:38:44;20.50;49.00
59973;DHT22;55298;-36.624;-64.282;2022-12-18T06:41:17;20.40;48.90
59973;DHT22;55298;-36.624;-64.282;2022-12-18T06:43:46;20.50;49.00
59973;DHT22;55298;-36.624;-64.282;2022-12-18T06:46:15;20.40;49.00
59973;DHT22;55298;-36.624;-64.282;2022-12-18T06:48:50;20.50;48.90
59973;DHT22;55298;-36.624;-64.282;2022-12-18T06:51:20;20.40;48.90
59973;DHT22;55298;-36.624;-64.282;2022-12-18T06:53:49;20.40;48.80
59973;DHT22;55298;-36.624;-64.282;2022-12-18T06:56:19;20.50;48.90
59973;DHT22;55298;-36.624;-64.282;2022-12-18T06:58:47;20.30;49.00
59973;DHT22;55298;-36.624;-64.282;2022-12-18T07:01:15;20.30;49.30
59973;DHT22;55298;-36.624;-64.282;2022-12-18T07:03:44;20.30;49.50
59973;DHT22;55298;-36.624;-64.282;2022-12-18T07:06:16;20.30;49.50
59973;DHT22;55298;-36.624;-64.282;2022-12-18T07:08:44;20.20;49.70
59973;DHT22;55298;-36.624;-64.282;2022-12-18T07:11:13;20.20;49.60
59973;DHT22;55298;-36.624;-64.282;2022-12-18T07:13:41;20.20;49.80
59973;DHT22;55298;-36.624;-64.282;2022-12-18T07:16:13;20.20;49.80
59973;DHT22;55298;-36.624;-64.282;2022-12-18T07:18:42;20.10;49.90
59973;DHT22;55298;-36.624;-64.282;2022-12-18T07:21:15;20.10;50.00
59973;DHT22;55298;-36.624;-64.282;2022-12-18T07:23:42;20.10;50.30
59973;DHT22;55298;-36.624;-64.282;2022-12-18T07:26:17;20.10;49.90
59973;DHT22;55298;-36.624;-64.282;2022-12-18T07:28:46;20.10;50.00
59973;DHT22;55298;-36.624;-64.282;2022-12-18T07:31:18;20.10;50.10
59973;DHT22;55298;-36.624;-64.282;2022-12-18T07:33:47;20.00;50.20
59973;DHT22;55298;-36.624;-64.282;2022-12-18T07:36:15;20.00;50.50
59973;DHT22;55298;-36.624;-64.282;2022-12-18T07:38:46;20.10;50.50
59973;DHT22;55298;-36.624;-64.282;2022-12-18T07:41:15;19.90;50.70
59973;DHT22;55298;-36.624;-64.282;2022-12-18T07:43:45;19.80;50.80
59973;DHT22;55298;-36.624;-64.282;2022-12-18T07:46:14;19.70;50.90
59973;DHT22;55298;-36.624;-64.282;2022-12-18T07:48:43;19.80;51.30
59973;DHT22;55298;-36.624;-64.282;2022-12-18T07:51:11;19.70;51.20
59973;DHT22;55298;-36.624;-64.282;2022-12-18T07:53:40;19.70;51.30
59973;DHT22;55298;-36.624;-64.282;2022-12-18T07:56:10;19.70;51.50
59973;DHT22;55298;-36.624;-64.282;2022-12-18T07:58:40;19.60;51.70
59973;DHT22;55298;-36.624;-64.282;2022-12-18T08:01:11;19.60;51.70
59973;DHT22;55298;-36.624;-64.282;2022-12-18T08:03:41;19.60;51.70
59973;DHT22;55298;-36.624;-64.282;2022-12-18T08:06:13;19.60;51.80
59973;DHT22;55298;-36.624;-64.282;2022-12-18T08:08:41;19.50;52.00
59973;DHT22;55298;-36.624;-64.282;2022-12-18T08:11:09;19.50;52.10
59973;DHT22;55298;-36.624;-64.282;2022-12-18T08:13:37;19.50;52.40
59973;DHT22;55298;-36.624;-64.282;2022-12-18T08:16:07;19.40;52.50
59973;DHT22;55298;-36.624;-64.282;2022-12-18T08:18:36;19.40;52.50
59973;DHT22;55298;-36.624;-64.282;2022-12-18T08:21:14;19.40;52.60
59973;DHT22;55298;-36.624;-64.282;2022-12-18T08:23:43;19.40;52.60
59973;DHT22;55298;-36.624;-64.282;2022-12-18T08:26:12;19.40;52.60
59973;DHT22;55298;-36.624;-64.282;2022-12-18T08:28:40;19.40;52.70
59973;DHT22;55298;-36.624;-64.282;2022-12-18T08:31:09;19.40;52.60
59973;DHT22;55298;-36.624;-64.282;2022-12-18T08:33:38;19.40;52.70
59973;DHT22;55298;-36.624;-64.282;2022-12-18T08:36:10;19.40;52.90
59973;DHT22;55298;-36.624;-64.282;2022-12-18T08:38:39;19.30;53.00
59973;DHT22;55298;-36.624;-64.282;2022-12-18T08:41:09;19.30;53.10
59973;DHT22;55298;-36.624;-64.282;2022-12-18T08:43:38;19.30;53.20
59973;DHT22;55298;-36.624;-64.282;2022-12-18T08:46:15;19.20;53.30
59973;DHT22;55298;-36.624;-64.282;2022-12-18T08:48:45;19.20;53.50
59973;DHT22;55298;-36.624;-64.282;2022-12-18T08:51:15;19.10;53.50
59973;DHT22;55298;-36.624;-64.282;2022-12-18T08:53:44;19.10;53.80
59973;DHT22;55298;-36.624;-64.282;2022-12-18T08:56:13;19.00;53.90
59973;DHT22;55298;-36.624;-64.282;2022-12-18T08:58:42;19.00;54.10
59973;DHT22;55298;-36.624;-64.282;2022-12-18T09:01:11;19.00;54.20
59973;DHT22;55298;-36.624;-64.282;2022-12-18T09:03:40;19.00;54.30
59973;DHT22;55298;-36.624;-64.282;2022-12-18T09:06:08;19.00;54.50
59973;DHT22;55298;-36.624;-64.282;2022-12-18T09:08:37;19.00;54.50
59973;DHT22;55298;-36.624;-64.282;2022-12-18T09:11:09;18.90;54.60
59973;DHT22;55298;-36.624;-64.282;2022-12-18T09:13:39;18.90;54.60
59973;DHT22;55298;-36.624;-64.282;2022-12-18T09:16:10;18.90;54.80
59973;DHT22;55298;-36.624;-64.282;2022-12-18T09:18:39;18.80;54.90
59973;DHT22;55298;-36.624;-64.282;2022-12-18T09:21:10;18.80;55.10
59973;DHT22;55298;-36.624;-64.282;2022-12-18T09:23:40;18.80;55.30
59973;DHT22;55298;-36.624;-64.282;2022-12-18T09:26:08;18.70;55.50
59973;DHT22;55298;-36.624;-64.282;2022-12-18T09:28:36;18.70;55.60
59973;DHT22;55298;-36.624;-64.282;2022-12-18T09:31:07;18.70;55.50
59973;DHT22;55298;-36.624;-64.282;2022-12-18T09:33:35;18.70;55.70
59973;DHT22;55298;-36.624;-64.282;2022-12-18T09:36:05;18.80;55.60
59973;DHT22;55298;-36.624;-64.282;2022-12-18T09:38:35;18.80;55.60
59973;DHT22;55298;-36.624;-64.282;2022-12-18T09:41:24;18.70;55.70
59973;DHT22;55298;-36.624;-64.282;2022-12-18T09:43:59;18.70;55.80
59973;DHT22;55298;-36.624;-64.282;2022-12-18T09:46:37;18.70;55.80
59973;DHT22;55298;-36.624;-64.282;2022-12-18T09:49:13;18.80;55.80
59973;DHT22;55298;-36.624;-64.282;2022-12-18T09:51:49;18.80;55.80
59973;DHT22;55298;-36.624;-64.282;2022-12-18T09:54:26;18.80;55.70
59973;DHT22;55298;-36.624;-64.282;2022-12-18T09:56:58;18.90;55.60
59973;DHT22;55298;-36.624;-64.282;2022-12-18T09:59:34;18.80;55.40
59973;DHT22;55298;-36.624;-64.282;2022-12-18T10:02:13;18.90;55.20
59973;DHT22;55298;-36.624;-64.282;2022-12-18T10:04:42;19.10;55.10
59973;DHT22;55298;-36.624;-64.282;2022-12-18T10:07:19;19.10;54.80
59973;DHT22;55298;-36.624;-64.282;2022-12-18T10:10:06;19.30;54.80
59973;DHT22;55298;-36.624;-64.282;2022-12-18T10:15:41;19.50;54.10
59973;DHT22;55298;-36.624;-64.282;2022-12-18T10:18:29;19.60;53.90
59973;DHT22;55298;-36.624;-64.282;2022-12-18T10:21:07;19.60;53.80
59973;DHT22;55298;-36.624;-64.282;2022-12-18T10:23:54;19.60;53.70
59973;DHT22;55298;-36.624;-64.282;2022-12-18T10:26:25;19.70;53.80
59973;DHT22;55298;-36.624;-64.282;2022-12-18T10:29:00;19.70;53.60
59973;DHT22;55298;-36.624;-64.282;2022-12-18T10:31:29;19.80;53.60
59973;DHT22;55298;-36.624;-64.282;2022-12-18T10:33:57;19.80;53.60
59973;DHT22;55298;-36.624;-64.282;2022-12-18T10:36:28;19.80;53.40
59973;DHT22;55298;-36.624;-64.282;2022-12-18T10:39:19;19.90;53.30
59973;DHT22;55298;-36.624;-64.282;2022-12-18T10:41:49;20.10;53.00
59973;DHT22;55298;-36.624;-64.282;2022-12-18T10:44:21;20.20;52.70
59973;DHT22;55298;-36.624;-64.282;2022-12-18T10:46:53;20.30;52.30
59973;DHT22;55298;-36.624;-64.282;2022-12-18T10:49:27;20.40;51.90
59973;DHT22;55298;-36.624;-64.282;2022-12-18T10:52:14;20.50;51.70
59973;DHT22;55298;-36.624;-64.282;2022-12-18T10:55:02;20.70;51.50
59973;DHT22;55298;-36.624;-64.282;2022-12-18T10:57:39;20.70;51.00
59973;DHT22;55298;-36.624;-64.282;2022-12-18T11:00:21;20.80;50.60
59973;DHT22;55298;-36.624;-64.282;2022-12-18T11:02:51;21.00;50.50
59973;DHT22;55298;-36.624;-64.282;2022-12-18T11:05:36;21.10;50.20
59973;DHT22;55298;-36.624;-64.282;2022-12-18T11:08:04;21.20;49.90
59973;DHT22;55298;-36.624;-64.282;2022-12-18T11:10:35;21.30;49.70
59973;DHT22;55298;-36.624;-64.282;2022-12-18T11:13:20;21.50;49.60
59973;DHT22;55298;-36.624;-64.282;2022-12-18T11:15:50;21.70;49.10
59973;DHT22;55298;-36.624;-64.282;2022-12-18T11:18:27;21.90;48.20
59973;DHT22;55298;-36.624;-64.282;2022-12-18T11:21:08;22.20;47.80
59973;DHT22;55298;-36.624;-64.282;2022-12-18T11:23:44;22.50;47.10
59973;DHT22;55298;-36.624;-64.282;2022-12-18T11:26:14;22.90;46.20
59973;DHT22;55298;-36.624;-64.282;2022-12-18T11:28:51;23.30;45.30
59973;DHT22;55298;-36.624;-64.282;2022-12-18T11:31:26;23.70;44.00
59973;DHT22;55298;-36.624;-64.282;2022-12-18T11:34:13;24.30;43.90
59973;DHT22;55298;-36.624;-64.282;2022-12-18T11:36:46;24.90;41.90
59973;DHT22;55298;-36.624;-64.282;2022-12-18T11:42:03;25.80;40.30
59973;DHT22;55298;-36.624;-64.282;2022-12-18T11:45:00;25.80;39.60
59973;DHT22;55298;-36.624;-64.282;2022-12-18T11:47:48;25.60;40.10
59973;DHT22;55298;-36.624;-64.282;2022-12-18T11:50:30;25.50;39.70
59973;DHT22;55298;-36.624;-64.282;2022-12-18T11:52:59;25.30;40.40
59973;DHT22;55298;-36.624;-64.282;2022-12-18T11:55:47;25.40;40.70
59973;DHT22;55298;-36.624;-64.282;2022-12-18T12:01:19;27.20;38.20
59973;DHT22;55298;-36.624;-64.282;2022-12-18T12:07:02;28.90;35.20
59973;DHT22;55298;-36.624;-64.282;2022-12-18T12:09:44;29.40;34.30
59973;DHT22;55298;-36.624;-64.282;2022-12-18T12:12:29;28.90;33.30
59973;DHT22;55298;-36.624;-64.282;2022-12-18T12:15:26;28.40;34.00
59973;DHT22;55298;-36.624;-64.282;2022-12-18T12:18:07;28.80;33.80
59973;DHT22;55298;-36.624;-64.282;2022-12-18T12:20:52;29.80;33.80
59973;DHT22;55298;-36.624;-64.282;2022-12-18T12:26:16;31.10;30.40
59973;DHT22;55298;-36.624;-64.282;2022-12-18T12:29:07;31.70;31.20
59973;DHT22;55298;-36.624;-64.282;2022-12-18T12:32:05;32.70;30.50
59973;DHT22;55298;-36.624;-64.282;2022-12-18T12:34:50;33.40;27.80
59973;DHT22;55298;-36.624;-64.282;2022-12-18T12:37:46;34.00;27.20
59973;DHT22;55298;-36.624;-64.282;2022-12-18T12:40:18;34.10;26.90
59973;DHT22;55298;-36.624;-64.282;2022-12-18T12:43:00;34.40;26.40
59973;DHT22;55298;-36.624;-64.282;2022-12-18T12:45:51;34.70;26.20
59973;DHT22;55298;-36.624;-64.282;2022-12-18T12:51:43;35.20;25.00
59973;DHT22;55298;-36.624;-64.282;2022-12-18T12:54:06;34.90;25.90
59973;DHT22;55298;-36.624;-64.282;2022-12-18T12:59:46;35.00;25.80
59973;DHT22;55298;-36.624;-64.282;2022-12-18T13:02:37;34.80;25.60
59973;DHT22;55298;-36.624;-64.282;2022-12-18T13:05:28;34.20;26.10
59973;DHT22;55298;-36.624;-64.282;2022-12-18T13:08:04;34.40;26.20
59973;DHT22;55298;-36.624;-64.282;2022-12-18T13:10:46;34.70;26.00
59973;DHT22;55298;-36.624;-64.282;2022-12-18T13:13:56;34.90;25.50
59973;DHT22;55298;-36.624;-64.282;2022-12-18T13:16:26;35.50;24.80
59973;DHT22;55298;-36.624;-64.282;2022-12-18T13:18:57;36.00;25.00
59973;DHT22;55298;-36.624;-64.282;2022-12-18T13:21:29;36.30;24.80
59973;DHT22;55298;-36.624;-64.282;2022-12-18T13:24:20;36.70;23.80
59973;DHT22;55298;-36.624;-64.282;2022-12-18T13:26:50;36.80;24.40
59973;DHT22;55298;-36.624;-64.282;2022-12-18T13:32:23;37.10;24.00
59973;DHT22;55298;-36.624;-64.282;2022-12-18T13:35:38;37.30;23.90
59973;DHT22;55298;-36.624;-64.282;2022-12-18T13:37:58;37.50;23.00
59973;DHT22;55298;-36.624;-64.282;2022-12-18T13:43:30;37.30;22.80
59973;DHT22;55298;-36.624;-64.282;2022-12-18T13:49:05;36.50;23.70
59973;DHT22;55298;-36.624;-64.282;2022-12-18T13:51:35;36.70;23.90
59973;DHT22;55298;-36.624;-64.282;2022-12-18T13:54:28;37.00;24.00
59973;DHT22;55298;-36.624;-64.282;2022-12-18T13:56:57;37.30;23.30
59973;DHT22;55298;-36.624;-64.282;2022-12-18T13:59:36;37.40;23.10
59973;DHT22;55298;-36.624;-64.282;2022-12-18T14:02:16;37.20;23.20
59973;DHT22;55298;-36.624;-64.282;2022-12-18T14:04:48;37.30;23.20
59973;DHT22;55298;-36.624;-64.282;2022-12-18T14:07:23;37.20;23.40
59973;DHT22;55298;-36.624;-64.282;2022-12-18T14:09:56;37.50;23.50
59973;DHT22;55298;-36.624;-64.282;2022-12-18T14:12:27;37.80;23.10
59973;DHT22;55298;-36.624;-64.282;2022-12-18T14:15:32;37.90;22.40
59973;DHT22;55298;-36.624;-64.282;2022-12-18T14:18:08;38.00;22.30
59973;DHT22;55298;-36.624;-64.282;2022-12-18T14:20:47;37.30;22.80
59973;DHT22;55298;-36.624;-64.282;2022-12-18T14:28:44;37.20;23.70
59973;DHT22;55298;-36.624;-64.282;2022-12-18T14:31:31;37.50;23.80
59973;DHT22;55298;-36.624;-64.282;2022-12-18T14:33:59;37.70;23.30
59973;DHT22;55298;-36.624;-64.282;2022-12-18T14:36:30;37.70;23.40
59973;DHT22;55298;-36.624;-64.282;2022-12-18T14:38:59;37.80;23.50
59973;DHT22;55298;-36.624;-64.282;2022-12-18T14:41:28;37.40;24.00
59973;DHT22;55298;-36.624;-64.282;2022-12-18T14:44:07;37.30;23.80
59973;DHT22;55298;-36.624;-64.282;2022-12-18T14:46:41;37.50;24.30
59973;DHT22;55298;-36.624;-64.282;2022-12-18T14:52:27;37.50;24.20
59973;DHT22;55298;-36.624;-64.282;2022-12-18T14:54:59;37.20;24.30
59973;DHT22;55298;-36.624;-64.282;2022-12-18T14:57:36;37.20;25.00
59973;DHT22;55298;-36.624;-64.282;2022-12-18T15:00:15;37.30;24.70
59973;DHT22;55298;-36.624;-64.282;2022-12-18T15:02:45;37.30;25.00
59973;DHT22;55298;-36.624;-64.282;2022-12-18T15:05:20;36.90;25.20
59973;DHT22;55298;-36.624;-64.282;2022-12-18T15:07:51;36.90;25.10
59973;DHT22;55298;-36.624;-64.282;2022-12-18T15:10:29;37.00;24.60
59973;DHT22;55298;-36.624;-64.282;2022-12-18T15:13:20;36.90;24.70
59973;DHT22;55298;-36.624;-64.282;2022-12-18T15:15:49;36.70;25.30
59973;DHT22;55298;-36.624;-64.282;2022-12-18T15:18:20;36.90;25.30
59973;DHT22;55298;-36.624;-64.282;2022-12-18T15:21:00;37.20;25.30
59973;DHT22;55298;-36.624;-64.282;2022-12-18T15:23:51;37.40;24.60
59973;DHT22;55298;-36.624;-64.282;2022-12-18T15:26:21;36.70;24.70
59973;DHT22;55298;-36.624;-64.282;2022-12-18T15:28:54;36.20;25.80
59973;DHT22;55298;-36.624;-64.282;2022-12-18T15:31:29;36.10;25.70
59973;DHT22;55298;-36.624;-64.282;2022-12-18T15:34:14;36.20;25.80
59973;DHT22;55298;-36.624;-64.282;2022-12-18T15:36:46;36.30;25.60
59973;DHT22;55298;-36.624;-64.282;2022-12-18T15:39:15;36.20;25.90
59973;DHT22;55298;-36.624;-64.282;2022-12-18T15:41:44;36.10;25.30
59973;DHT22;55298;-36.624;-64.282;2022-12-18T15:44:24;35.90;25.90
59973;DHT22;55298;-36.624;-64.282;2022-12-18T15:46:53;36.00;25.50
59973;DHT22;55298;-36.624;-64.282;2022-12-18T15:49:22;35.80;25.00
59973;DHT22;55298;-36.624;-64.282;2022-12-18T15:51:53;35.20;25.60
59973;DHT22;55298;-36.624;-64.282;2022-12-18T15:54:23;35.00;26.20
59973;DHT22;55298;-36.624;-64.282;2022-12-18T15:57:02;35.30;26.30
59973;DHT22;55298;-36.624;-64.282;2022-12-18T15:59:39;35.60;25.80
59973;DHT22;55298;-36.624;-64.282;2022-12-18T16:02:15;35.60;25.80
59973;DHT22;55298;-36.624;-64.282;2022-12-18T16:04:44;35.60;25.50
59973;DHT22;55298;-36.624;-64.282;2022-12-18T16:07:12;35.60;25.60
59973;DHT22;55298;-36.624;-64.282;2022-12-18T16:09:41;35.80;25.50
59973;DHT22;55298;-36.624;-64.282;2022-12-18T16:12:18;35.90;25.00
59973;DHT22;55298;-36.624;-64.282;2022-12-18T16:14:48;36.20;24.80
59973;DHT22;55298;-36.624;-64.282;2022-12-18T16:17:16;36.20;24.50
59973;DHT22;55298;-36.624;-64.282;2022-12-18T16:19:46;36.10;24.80
59973;DHT22;55298;-36.624;-64.282;2022-12-18T16:22:20;36.10;24.10
59973;DHT22;55298;-36.624;-64.282;2022-12-18T16:24:51;36.20;24.30